createdAt,value
2023-02-06T00:00:10.070Z,3.20
2023-02-06T00:02:57.009Z,3.30
2023-02-06T00:05:43.686Z,3.30
2023-02-06T00:08:31.616Z,3.30
2023-02-06T00:11:18.450Z,3.30
2023-02-06T00:14:05.199Z,3.20
2023-02-06T00:16:51.571Z,3.30
2023-02-06T00:19:38.276Z,3.30
2023-02-06T00:22:25.050Z,3.40
2023-02-06T00:25:12.832Z,3.40
2023-02-06T00:27:59.272Z,3.40
2023-02-06T00:30:48.181Z,3.50
2023-02-06T00:33:35.662Z,3.50
2023-02-06T00:36:22.858Z,3.60
2023-02-06T00:39:11.219Z,3.60
2023-02-06T00:41:59.240Z,3.50
2023-02-06T00:44:45.907Z,3.60
2023-02-06T00:47:32.382Z,3.40
2023-02-06T00:50:19.576Z,3.40
2023-02-06T00:53:06.189Z,3.30
2023-02-06T00:55:52.363Z,3.30
2023-02-06T00:58:42.612Z,3.30
2023-02-06T01:01:31.074Z,3.30
2023-02-06T01:04:17.886Z,3.40
2023-02-06T01:07:04.146Z,3.50
2023-02-06T01:09:51.103Z,3.60
2023-02-06T01:12:38.344Z,3.60
2023-02-06T01:15:26.363Z,3.60
2023-02-06T01:18:13.046Z,3.70
2023-02-06T01:20:59.969Z,3.60
2023-02-06T01:23:48.251Z,3.70
2023-02-06T01:26:34.917Z,3.60
2023-02-06T01:29:22.318Z,3.60
2023-02-06T01:32:10.113Z,3.60
2023-02-06T01:34:57.714Z,3.60
2023-02-06T01:37:44.298Z,3.50
2023-02-06T01:40:30.754Z,3.60
2023-02-06T01:43:19.486Z,3.60
2023-02-06T01:46:06.477Z,3.60
2023-02-06T01:48:55.984Z,3.50
2023-02-06T01:51:42.938Z,3.50
2023-02-06T01:54:29.642Z,3.40
2023-02-06T01:57:17.098Z,3.50
2023-02-06T02:00:08.509Z,3.60
2023-02-06T02:03:02.153Z,3.70
2023-02-06T02:05:53.064Z,3.80
2023-02-06T02:08:41.954Z,3.90
2023-02-06T02:11:33.093Z,4.00
2023-02-06T02:14:19.622Z,3.90
2023-02-06T02:17:24.637Z,3.90
2023-02-06T02:20:42.396Z,3.70
2023-02-06T02:23:39.270Z,3.60
2023-02-06T02:26:57.733Z,3.60
2023-02-06T02:30:23.848Z,3.70
2023-02-06T02:33:55.378Z,3.60
2023-02-06T02:36:50.676Z,3.60
2023-02-06T02:39:47.045Z,3.50
2023-02-06T02:42:41.844Z,3.50
2023-02-06T02:45:34.101Z,3.60
2023-02-06T02:48:25.408Z,3.50
2023-02-06T02:51:13.185Z,3.50
2023-02-06T02:54:02.460Z,3.50
2023-02-06T02:56:49.550Z,3.50
2023-02-06T02:59:40.047Z,3.60
2023-02-06T03:02:30.076Z,3.50
2023-02-06T03:05:21.261Z,3.50
2023-02-06T03:08:20.656Z,3.60
2023-02-06T03:11:14.387Z,3.70
2023-02-06T03:14:06.952Z,3.60
2023-02-06T03:16:58.996Z,3.60
2023-02-06T03:19:52.441Z,3.60
2023-02-06T03:22:43.073Z,3.60
2023-02-06T03:25:37.168Z,3.50
2023-02-06T03:28:28.462Z,3.50
2023-02-06T03:31:19.599Z,3.50
2023-02-06T03:34:13.212Z,3.50
2023-02-06T03:36:59.584Z,3.60
2023-02-06T03:39:46.136Z,3.50
2023-02-06T03:42:35.445Z,3.40
2023-02-06T03:45:28.760Z,3.30
2023-02-06T03:48:20.011Z,3.40
2023-02-06T03:51:12.331Z,3.40
2023-02-06T03:54:01.905Z,3.40
2023-02-06T03:56:53.772Z,3.30
2023-02-06T03:59:40.511Z,3.20
2023-02-06T04:02:29.205Z,3.20
2023-02-06T04:05:17.464Z,3.10
2023-02-06T04:08:04.089Z,3.00
2023-02-06T04:10:50.905Z,2.90
2023-02-06T04:13:37.599Z,2.90
2023-02-06T04:16:24.062Z,2.90
2023-02-06T04:19:12.247Z,3.00
2023-02-06T04:21:59.146Z,3.00
2023-02-06T04:24:45.804Z,3.00
2023-02-06T04:27:32.273Z,3.00
2023-02-06T04:30:19.275Z,3.10
2023-02-06T04:33:06.567Z,3.00
2023-02-06T04:35:54.536Z,3.10
2023-02-06T04:38:41.127Z,3.00
2023-02-06T04:41:27.805Z,3.00
2023-02-06T04:44:14.337Z,3.00
2023-02-06T04:47:00.911Z,3.00
2023-02-06T04:49:47.477Z,3.10
2023-02-06T04:52:35.479Z,3.00
2023-02-06T04:55:22.738Z,3.00
2023-02-06T04:58:09.461Z,3.10
2023-02-06T05:00:55.773Z,3.10
2023-02-06T05:03:42.105Z,3.10
2023-02-06T05:06:29.623Z,3.10
2023-02-06T05:09:17.319Z,3.20
2023-02-06T05:12:04.974Z,3.10
2023-02-06T05:14:51.583Z,3.10
2023-02-06T05:17:37.973Z,3.10
2023-02-06T05:20:24.704Z,3.00
2023-02-06T05:23:11.728Z,3.00
2023-02-06T05:25:59.914Z,3.00
2023-02-06T05:28:46.498Z,2.90
2023-02-06T05:31:33.555Z,2.90
2023-02-06T05:34:20.378Z,2.90
2023-02-06T05:37:06.766Z,2.90
2023-02-06T05:39:53.400Z,2.90
2023-02-06T05:42:41.078Z,2.90
2023-02-06T05:45:27.859Z,2.90
2023-02-06T05:48:14.585Z,3.10
2023-02-06T05:51:00.989Z,3.10
2023-02-06T05:53:47.437Z,3.20
2023-02-06T05:56:33.998Z,3.10
2023-02-06T05:59:21.851Z,3.10
2023-02-06T06:02:08.192Z,3.10
2023-02-06T06:04:54.981Z,3.00
2023-02-06T06:07:42.174Z,3.00
2023-02-06T06:10:28.675Z,3.00
2023-02-06T06:13:15.508Z,3.10
2023-02-06T06:16:03.386Z,3.00
2023-02-06T06:18:50.072Z,3.00
2023-02-06T06:21:37.032Z,3.00
2023-02-06T06:24:23.508Z,3.00
2023-02-06T06:27:11.710Z,2.90
2023-02-06T06:29:58.324Z,2.90
2023-02-06T06:32:46.013Z,2.80
2023-02-06T06:35:32.794Z,2.80
2023-02-06T06:38:19.361Z,2.90
2023-02-06T06:41:06.907Z,3.00
2023-02-06T06:43:57.046Z,3.00
2023-02-06T06:46:43.478Z,3.00
2023-02-06T06:49:33.166Z,3.10
2023-02-06T06:52:25.072Z,3.00
2023-02-06T06:55:12.588Z,3.00
2023-02-06T06:57:59.463Z,3.10
2023-02-06T07:00:46.041Z,3.00
2023-02-06T07:03:32.831Z,2.90
2023-02-06T07:06:20.920Z,2.70
2023-02-06T07:09:07.583Z,2.60
2023-02-06T07:11:53.992Z,2.80
2023-02-06T07:14:41.274Z,2.90
2023-02-06T07:17:27.886Z,3.10
2023-02-06T07:20:14.296Z,3.10
2023-02-06T07:23:01.966Z,3.10
2023-02-06T07:25:48.501Z,3.10
2023-02-06T07:28:35.364Z,3.00
2023-02-06T07:31:22.530Z,3.10
2023-02-06T07:34:09.261Z,3.00
2023-02-06T07:36:55.725Z,3.10
2023-02-06T07:39:43.578Z,3.10
2023-02-06T07:42:30.239Z,3.10
2023-02-06T07:45:24.842Z,3.10
2023-02-06T07:48:11.413Z,3.10
2023-02-06T07:50:58.397Z,3.20
2023-02-06T07:53:45.002Z,3.30
2023-02-06T07:56:32.728Z,3.40
2023-02-06T07:59:18.963Z,3.40
2023-02-06T08:02:05.300Z,3.30
2023-02-06T08:04:51.952Z,3.20
2023-02-06T08:07:38.880Z,3.20
2023-02-06T08:10:25.719Z,3.30
2023-02-06T08:13:13.857Z,3.40
2023-02-06T08:16:05.341Z,3.40
2023-02-06T08:18:52.611Z,3.50
2023-02-06T08:21:39.729Z,3.60
2023-02-06T08:24:26.485Z,3.70
2023-02-06T08:27:13.253Z,3.70
2023-02-06T08:30:01.081Z,3.70
2023-02-06T08:32:47.810Z,3.60
2023-02-06T08:35:35.096Z,3.80
2023-02-06T08:38:21.671Z,3.90
2023-02-06T08:41:17.496Z,4.20
2023-02-06T08:44:05.892Z,4.10
2023-02-06T08:47:04.705Z,4.10
2023-02-06T08:49:55.906Z,4.10
2023-02-06T08:52:42.695Z,3.90
2023-02-06T08:55:29.056Z,3.70
2023-02-06T08:58:15.616Z,3.70
2023-02-06T09:01:07.503Z,3.70
2023-02-06T09:03:58.547Z,3.80
2023-02-06T09:06:48.755Z,3.90
2023-02-06T09:09:35.247Z,3.90
2023-02-06T09:12:22.183Z,4.00
2023-02-06T09:15:09.789Z,4.10
2023-02-06T09:17:56.369Z,4.20
2023-02-06T09:20:46.032Z,4.20
2023-02-06T09:23:32.784Z,4.30
2023-02-06T09:26:21.625Z,4.70
2023-02-06T09:29:09.606Z,4.90
2023-02-06T09:31:57.193Z,5.10
2023-02-06T09:34:44.028Z,5.30
2023-02-06T09:37:31.819Z,5.00
2023-02-06T09:40:24.400Z,5.50
2023-02-06T09:43:14.280Z,5.80
2023-02-06T09:46:04.515Z,5.70
2023-02-06T09:48:51.950Z,5.30
2023-02-06T09:51:54.300Z,5.20
2023-02-06T09:54:54.677Z,5.10
2023-02-06T09:57:51.488Z,4.90
2023-02-06T10:00:45.551Z,4.50
2023-02-06T10:04:05.110Z,4.40
2023-02-06T10:06:57.152Z,4.70
2023-02-06T10:09:50.757Z,4.80
2023-02-06T10:12:42.006Z,4.90
2023-02-06T10:15:35.320Z,5.30
2023-02-06T10:18:28.624Z,5.50
2023-02-06T10:21:33.424Z,5.60
2023-02-06T10:24:28.923Z,5.60
2023-02-06T10:27:18.461Z,5.50
2023-02-06T10:30:05.587Z,5.50
2023-02-06T10:32:58.050Z,4.90
2023-02-06T10:35:53.262Z,4.90
2023-02-06T10:39:01.157Z,4.80
2023-02-06T10:41:54.334Z,4.80
2023-02-06T10:44:51.410Z,4.80
2023-02-06T10:47:45.091Z,4.60
2023-02-06T10:50:35.961Z,4.80
2023-02-06T10:53:26.798Z,4.90
2023-02-06T10:56:17.924Z,5.00
2023-02-06T10:59:08.440Z,5.20
2023-02-06T11:02:04.633Z,5.40
2023-02-06T11:04:55.430Z,5.20
2023-02-06T11:07:44.606Z,5.30
2023-02-06T11:10:32.231Z,5.40
2023-02-06T11:13:26.725Z,5.60
2023-02-06T11:16:16.690Z,5.70
2023-02-06T11:19:17.056Z,5.60
2023-02-06T11:22:12.787Z,5.20
2023-02-06T11:25:02.097Z,5.20
2023-02-06T11:27:49.125Z,5.10
2023-02-06T11:30:38.341Z,4.90
2023-02-06T11:33:30.325Z,4.90
2023-02-06T11:36:25.554Z,5.00
2023-02-06T11:39:24.756Z,5.10
2023-02-06T11:42:22.189Z,5.20
2023-02-06T11:45:28.811Z,4.90
2023-02-06T11:48:38.361Z,5.00
2023-02-06T11:51:27.171Z,5.10
2023-02-06T11:54:22.161Z,5.10
2023-02-06T11:57:20.541Z,5.10
2023-02-06T12:00:21.617Z,5.20
2023-02-06T12:03:28.357Z,5.30
2023-02-06T12:06:18.365Z,5.30
2023-02-06T12:09:12.186Z,5.30
2023-02-06T12:12:02.676Z,5.20
2023-02-06T12:14:52.109Z,5.10
2023-02-06T12:17:41.806Z,5.10
2023-02-06T12:20:32.198Z,5.20
2023-02-06T12:23:26.118Z,5.20
2023-02-06T12:26:17.626Z,5.20
2023-02-06T12:29:09.651Z,5.30
2023-02-06T12:32:04.604Z,5.40
2023-02-06T12:34:54.327Z,5.30
2023-02-06T12:37:48.121Z,5.30
2023-02-06T12:40:44.358Z,5.10
2023-02-06T12:43:35.536Z,5.10
2023-02-06T12:46:25.746Z,5.10
2023-02-06T12:49:18.214Z,5.30
2023-02-06T12:52:10.820Z,5.50
2023-02-06T12:55:05.321Z,5.50
2023-02-06T12:57:53.220Z,5.40
2023-02-06T13:00:58.837Z,5.40
2023-02-06T13:03:50.001Z,5.40
2023-02-06T13:06:47.306Z,5.00
2023-02-06T13:09:39.406Z,5.00
2023-02-06T13:12:29.938Z,5.10
2023-02-06T13:15:23.650Z,5.30
2023-02-06T13:18:37.169Z,5.40
2023-02-06T13:21:28.597Z,5.40
2023-02-06T13:24:19.458Z,5.20
2023-02-06T13:27:14.977Z,5.30
2023-02-06T13:30:18.651Z,5.50
2023-02-06T13:33:15.709Z,5.50
2023-02-06T13:36:06.549Z,5.60
2023-02-06T13:38:56.525Z,5.70
2023-02-06T13:41:44.577Z,5.50
2023-02-06T13:44:34.640Z,5.60
2023-02-06T13:48:13.999Z,5.40
2023-02-06T13:51:19.053Z,5.20
2023-02-06T13:54:35.082Z,5.20
2023-02-06T13:57:35.638Z,4.90
2023-02-06T14:00:25.635Z,5.10
2023-02-06T14:03:19.163Z,5.20
2023-02-06T14:06:17.526Z,5.10
2023-02-06T14:09:14.226Z,5.30
2023-02-06T14:12:28.653Z,5.30
2023-02-06T14:15:26.502Z,5.20
2023-02-06T14:18:28.077Z,5.10
2023-02-06T14:21:30.033Z,5.10
2023-02-06T14:24:39.238Z,5.00
2023-02-06T14:27:34.540Z,5.10
2023-02-06T14:30:30.781Z,5.20
2023-02-06T14:33:32.972Z,5.30
2023-02-06T14:36:37.018Z,5.40
2023-02-06T14:39:41.653Z,5.40
2023-02-06T14:42:32.494Z,5.50
2023-02-06T14:45:29.345Z,5.30
2023-02-06T14:48:24.263Z,5.30
2023-02-06T14:51:21.836Z,5.20
2023-02-06T14:54:34.071Z,5.00
2023-02-06T14:57:24.149Z,5.00
2023-02-06T15:00:19.990Z,5.00
2023-02-06T15:03:09.502Z,5.00
2023-02-06T15:06:02.085Z,5.00
2023-02-06T15:08:50.084Z,5.00
2023-02-06T15:11:38.018Z,5.10
2023-02-06T15:14:27.022Z,5.10
2023-02-06T15:17:20.303Z,5.00
2023-02-06T15:20:27.897Z,4.90
2023-02-06T15:23:28.468Z,5.00
2023-02-06T15:26:24.206Z,5.00
2023-02-06T15:29:19.483Z,5.00
2023-02-06T15:32:17.847Z,4.80
2023-02-06T15:35:05.355Z,4.90
2023-02-06T15:37:53.409Z,4.90
2023-02-06T15:40:42.196Z,4.80
2023-02-06T15:43:29.456Z,4.80
2023-02-06T15:46:17.356Z,4.80
2023-02-06T15:49:04.202Z,4.80
2023-02-06T15:51:53.556Z,4.90
2023-02-06T15:54:45.023Z,5.00
2023-02-06T15:57:35.012Z,5.00
2023-02-06T16:00:24.405Z,5.00
2023-02-06T16:03:21.079Z,4.90
2023-02-06T16:06:15.326Z,4.90
2023-02-06T16:09:06.340Z,4.90
2023-02-06T16:11:56.141Z,4.90
2023-02-06T16:14:52.546Z,4.80
2023-02-06T16:17:41.298Z,4.90
2023-02-06T16:20:39.242Z,4.80
2023-02-06T16:23:28.190Z,4.60
2023-02-06T16:26:18.149Z,4.50
2023-02-06T16:29:15.812Z,4.40
2023-02-06T16:32:12.307Z,4.30
2023-02-06T16:35:01.214Z,4.40
2023-02-06T16:37:49.391Z,4.30
2023-02-06T16:40:35.976Z,4.30
2023-02-06T16:43:23.557Z,4.40
2023-02-06T16:46:10.324Z,4.50
2023-02-06T16:48:57.555Z,4.50
2023-02-06T16:51:45.895Z,4.40
2023-02-06T16:54:34.870Z,4.60
2023-02-06T16:57:26.985Z,4.70
2023-02-06T17:00:19.183Z,4.70
2023-02-06T17:03:05.996Z,4.70
2023-02-06T17:05:54.552Z,4.80
2023-02-06T17:08:41.380Z,4.90
2023-02-06T17:11:29.396Z,4.80
2023-02-06T17:14:16.078Z,4.80
2023-02-06T17:17:05.507Z,4.70
2023-02-06T17:19:53.282Z,4.60
2023-02-06T17:22:40.100Z,4.40
2023-02-06T17:25:26.838Z,4.30
2023-02-06T17:28:17.133Z,4.20
2023-02-06T17:31:04.058Z,4.30
2023-02-06T17:33:50.940Z,4.40
2023-02-06T17:36:39.588Z,4.40
2023-02-06T17:39:26.890Z,4.40
2023-02-06T17:42:14.831Z,4.50
2023-02-06T17:45:02.812Z,4.60
2023-02-06T17:47:49.403Z,4.50
2023-02-06T17:50:38.022Z,4.40
2023-02-06T17:53:24.903Z,4.50
2023-02-06T17:56:13.637Z,4.60
2023-02-06T17:59:00.097Z,4.60
2023-02-06T18:01:47.887Z,4.60
2023-02-06T18:04:34.415Z,4.50
2023-02-06T18:07:20.982Z,4.20
2023-02-06T18:10:08.699Z,4.00
2023-02-06T18:12:55.560Z,3.70
2023-02-06T18:15:48.963Z,3.40
2023-02-06T18:18:37.118Z,3.30
2023-02-06T18:21:25.006Z,3.10
2023-02-06T18:24:11.672Z,3.00
2023-02-06T18:26:58.094Z,2.90
2023-02-06T18:29:50.513Z,3.00
2023-02-06T18:32:39.193Z,3.10
2023-02-06T18:35:27.346Z,3.20
2023-02-06T18:38:15.143Z,3.30
2023-02-06T18:41:04.254Z,3.30
2023-02-06T18:43:49.977Z,3.30
2023-02-06T18:46:37.865Z,3.20
2023-02-06T18:49:24.777Z,3.20
2023-02-06T18:52:12.951Z,3.20
2023-02-06T18:54:59.523Z,3.20
2023-02-06T18:57:46.309Z,3.30
2023-02-06T19:00:35.753Z,3.30
2023-02-06T19:03:24.051Z,3.50
2023-02-06T19:06:15.598Z,3.60
2023-02-06T19:09:07.530Z,3.70
2023-02-06T19:11:54.285Z,3.70
2023-02-06T19:14:40.983Z,3.80
2023-02-06T19:17:28.437Z,3.90
2023-02-06T19:20:14.945Z,3.80
2023-02-06T19:23:01.700Z,3.80
2023-02-06T19:25:49.442Z,3.60
2023-02-06T19:28:38.188Z,3.50
2023-02-06T19:31:25.324Z,3.40
2023-02-06T19:34:12.260Z,3.50
2023-02-06T19:36:58.950Z,3.40
2023-02-06T19:39:45.779Z,3.50
2023-02-06T19:42:33.494Z,3.50
2023-02-06T19:45:19.996Z,3.50
2023-02-06T19:48:11.848Z,3.60
2023-02-06T19:51:03.770Z,3.60
2023-02-06T19:53:51.627Z,3.50
2023-02-06T19:56:41.285Z,3.50
2023-02-06T19:59:30.601Z,3.40
2023-02-06T20:02:17.222Z,3.40
2023-02-06T20:05:03.630Z,3.40
2023-02-06T20:07:49.950Z,3.20
2023-02-06T20:10:38.338Z,3.20
2023-02-06T20:13:25.128Z,3.20
2023-02-06T20:16:17.977Z,3.20
2023-02-06T20:19:07.764Z,3.20
2023-02-06T20:21:56.765Z,3.10
2023-02-06T20:24:43.166Z,3.10
2023-02-06T20:27:30.007Z,3.10
2023-02-06T20:30:17.232Z,3.10
2023-02-06T20:33:06.282Z,3.10
2023-02-06T20:35:53.330Z,3.00
2023-02-06T20:38:39.811Z,2.90
2023-02-06T20:41:28.679Z,2.90
2023-02-06T20:44:15.746Z,2.90
2023-02-06T20:47:02.166Z,3.00
2023-02-06T20:49:50.073Z,3.00
2023-02-06T20:52:37.290Z,3.00
2023-02-06T20:55:23.726Z,2.90
2023-02-06T20:58:10.082Z,2.90
2023-02-06T21:00:56.671Z,2.90
2023-02-06T21:03:43.470Z,2.90
2023-02-06T21:06:32.077Z,2.90
2023-02-06T21:09:19.325Z,2.80
2023-02-06T21:12:06.125Z,2.80
2023-02-06T21:14:52.780Z,2.80
2023-02-06T21:17:39.251Z,2.80
2023-02-06T21:20:25.804Z,2.80
2023-02-06T21:23:13.829Z,2.80
2023-02-06T21:26:00.192Z,2.70
2023-02-06T21:28:47.254Z,2.70
2023-02-06T21:31:38.113Z,2.70
2023-02-06T21:34:26.807Z,2.70
2023-02-06T21:37:14.432Z,2.70
2023-02-06T21:40:02.555Z,2.70
2023-02-06T21:42:49.714Z,2.60
2023-02-06T21:45:38.640Z,2.60
2023-02-06T21:48:25.642Z,2.50
2023-02-06T21:51:13.300Z,2.50
2023-02-06T21:54:00.190Z,2.50
2023-02-06T21:56:48.192Z,2.50
2023-02-06T21:59:36.305Z,2.40
2023-02-06T22:02:23.051Z,2.40
2023-02-06T22:05:10.167Z,2.40
2023-02-06T22:07:56.834Z,2.40
2023-02-06T22:10:43.401Z,2.40
2023-02-06T22:13:30.926Z,2.40
2023-02-06T22:16:21.527Z,2.50
2023-02-06T22:19:08.952Z,2.40
2023-02-06T22:21:55.521Z,2.40
2023-02-06T22:24:44.118Z,2.30
2023-02-06T22:27:32.834Z,2.30
2023-02-06T22:30:21.272Z,2.30
2023-02-06T22:33:08.222Z,2.20
2023-02-06T22:35:55.206Z,2.20
2023-02-06T22:38:43.554Z,2.10
2023-02-06T22:41:34.258Z,2.10
2023-02-06T22:44:21.843Z,2.10
2023-02-06T22:47:10.097Z,2.10
2023-02-06T22:49:56.364Z,2.10
2023-02-06T22:53:05.368Z,2.00
2023-02-06T22:56:09.702Z,2.00
2023-02-06T22:58:58.206Z,1.80
2023-02-06T23:01:46.770Z,1.80
2023-02-06T23:04:36.156Z,1.80
2023-02-06T23:07:23.042Z,1.80
2023-02-06T23:10:10.379Z,1.80
2023-02-06T23:12:57.029Z,1.80
2023-02-06T23:15:43.517Z,1.70
2023-02-06T23:18:30.579Z,1.80
2023-02-06T23:21:20.753Z,1.70
2023-02-06T23:24:08.842Z,1.70
2023-02-06T23:26:55.369Z,1.60
2023-02-06T23:29:42.076Z,1.60
2023-02-06T23:32:28.547Z,1.60
2023-02-06T23:35:14.865Z,1.60
2023-02-06T23:38:02.739Z,1.60
2023-02-06T23:40:49.284Z,1.60
2023-02-06T23:43:35.856Z,1.60
2023-02-06T23:46:23.424Z,1.60
2023-02-06T23:49:10.960Z,1.60
2023-02-06T23:51:57.356Z,1.60
2023-02-06T23:54:45.076Z,1.60
2023-02-06T23:57:31.665Z,1.50
